Time;durP1;ratioP1;P1;durP2;ratioP2;P2;SDS_P1;SDS_P2;PMS_P1;PMS_P2;Temp;Humidity;BMP_temperature;BMP_pressure;BME280_temperature;BME280_humidity;BME280_pressure;Samples;Min_cycle;Max_cycle;Signal;HPM_P1;HPM_P2
2023/05/19 00:01:36;;;;;;;;;;;;;;;25.36;26.41;102019.41;4129396;28;20013;-67
2023/05/19 00:03:47;;;;;;;;;;;;;;;25.35;26.35;102013.13;4119190;28;19921;-69
2023/05/19 00:05:52;;;;;;;;;;;;;;;25.36;26.60;102024.78;4131027;28;19980;-68
2023/05/19 00:07:56;;;;;;;;;;;;;;;25.37;26.59;102021.09;4121913;28;19985;-68
2023/05/19 00:09:58;;;;;;;;;;;;;;;25.35;26.36;102018.53;4110868;28;19928;-68
2023/05/19 00:12:00;;;;;;;;;;;;;;;25.37;26.63;102013.00;4129690;28;19962;-68
2023/05/19 00:14:02;;;;;;;;;;;;;;;25.36;26.64;102025.63;4119289;28;19921;-68
2023/05/19 00:16:05;;;;;;;;;;;;;;;25.36;26.41;102025.63;4131185;28;20288;-68
2023/05/19 00:18:07;;;;;;;;;;;;;;;25.27;26.55;102009.34;4122805;28;20032;-68
2023/05/19 00:20:10;;;;;;;;;;;;;;;25.37;26.59;102023.78;4127071;28;19930;-68
2023/05/19 00:22:12;;;;;;;;;;;;;;;25.38;26.34;102025.53;4128922;28;19922;-68
2023/05/19 00:24:14;;;;;;;;;;;;;;;25.39;26.40;102031.78;4118901;28;19922;-68
2023/05/19 00:26:16;;;;;;;;;;;;;;;25.39;26.52;102024.56;4130770;28;19925;-68
2023/05/19 00:28:17;;;;;;;;;;;;;;;25.39;26.90;102016.47;4126738;28;19929;-68
2023/05/19 00:30:21;;;;;;;;;;;;;;;25.38;26.66;102022.00;4120396;28;19930;-68
2023/05/19 00:32:23;;;;;;;;;;;;;;;25.40;26.62;102014.66;4115436;28;19977;-68
2023/05/19 00:34:24;;;;;;;;;;;;;;;25.40;26.55;102020.06;4127344;28;19968;-68
2023/05/19 00:36:26;;;;;;;;;;;;;;;25.40;26.84;102017.34;4130772;28;19922;-68
2023/05/19 00:38:29;;;;;;;;;;;;;;;25.38;26.87;102020.16;4126268;28;20407;-68
2023/05/19 00:40:33;;;;;;;;;;;;;;;25.40;26.71;102020.06;4121333;28;19957;-69
2023/05/19 00:42:35;;;;;;;;;;;;;;;25.38;26.77;102016.59;4114063;28;19922;-69
2023/05/19 00:44:39;;;;;;;;;;;;;;;25.39;26.59;102007.56;4125921;28;19957;-68
2023/05/19 00:46:41;;;;;;;;;;;;;;;25.38;26.57;102012.06;4114886;28;19922;-68
2023/05/19 00:48:44;;;;;;;;;;;;;;;25.40;26.98;102010.13;4118947;28;19995;-68
2023/05/19 00:50:46;;;;;;;;;;;;;;;25.40;26.94;102001.19;4122362;28;20331;-68
2023/05/19 00:52:47;;;;;;;;;;;;;;;25.40;26.92;102004.75;4113846;28;19969;-68
2023/05/19 00:54:50;;;;;;;;;;;;;;;25.41;26.82;102006.47;4125887;28;20064;-67
2023/05/19 00:56:52;;;;;;;;;;;;;;;25.43;26.81;102003.63;4114582;28;20466;-68
2023/05/19 00:58:54;;;;;;;;;;;;;;;25.42;26.88;102005.47;4118726;28;20405;-67
2023/05/19 01:01:02;;;;;;;;;;;;;;;25.41;26.78;102003.75;4122044;28;20368;-67
2023/05/19 01:03:10;;;;;;;;;;;;;;;25.40;26.60;102010.13;4129989;28;19922;-68
2023/05/19 01:05:12;;;;;;;;;;;;;;;25.40;26.83;102006.59;4126073;28;19921;-68
2023/05/19 01:07:15;;;;;;;;;;;;;;;25.40;26.94;102003.91;4114715;28;19922;-68
2023/05/19 01:09:17;;;;;;;;;;;;;;;25.39;26.75;101997.63;4117581;28;19929;-68
2023/05/19 01:11:18;;;;;;;;;;;;;;;25.39;26.81;102003.00;4123217;28;19922;-68
2023/05/19 01:13:20;;;;;;;;;;;;;;;25.40;26.92;101999.34;4113803;28;19962;-68
2023/05/19 01:15:22;;;;;;;;;;;;;;;25.40;26.87;101996.66;4124849;28;19940;-68
2023/05/19 01:17:39;;;;;;;;;;;;;;;25.41;27.12;102001.06;4115665;28;20388;-67
2023/05/19 01:19:45;;;;;;;;;;;;;;;25.41;27.11;101993.00;4118165;28;19922;-68
2023/05/19 01:21:59;;;;;;;;;;;;;;;25.42;26.91;101993.84;4122150;28;19984;-67
2023/05/19 01:24:21;;;;;;;;;;;;;;;25.30;27.03;101974.94;4112806;28;19992;-68
2023/05/19 01:26:41;;;;;;;;;;;;;;;25.42;27.07;101992.03;4128014;28;19952;-67
2023/05/19 01:28:55;;;;;;;;;;;;;;;25.40;26.94;101985.03;4130734;28;19928;-68
2023/05/19 01:31:00;;;;;;;;;;;;;;;25.40;27.06;101991.28;4119249;28;19928;-67
2023/05/19 01:33:03;;;;;;;;;;;;;;;25.39;27.12;101984.16;4129329;28;19976;-68
2023/05/19 01:35:07;;;;;;;;;;;;;;;25.40;26.89;101993.13;4126299;28;19930;-68
2023/05/19 01:37:08;;;;;;;;;;;;;;;25.39;27.01;101983.31;4125616;28;19922;-68
2023/05/19 01:39:10;;;;;;;;;;;;;;;25.40;26.96;101982.34;4129501;28;19937;-67
2023/05/19 01:41:13;;;;;;;;;;;;;;;25.40;27.21;101985.88;4122271;28;20017;-69
2023/05/19 01:43:17;;;;;;;;;;;;;;;25.41;27.19;101986.72;4131296;28;20004;-68
2023/05/19 01:45:18;;;;;;;;;;;;;;;25.42;27.21;101980.38;4131224;28;19922;-68
2023/05/19 01:47:21;;;;;;;;;;;;;;;25.41;27.35;101981.34;4123357;28;19926;-68
2023/05/19 01:49:22;;;;;;;;;;;;;;;25.39;27.06;101978.78;4133510;28;19928;-68
2023/05/19 01:51:24;;;;;;;;;;;;;;;25.39;27.06;101981.47;4123525;28;19948;-68
2023/05/19 01:53:25;;;;;;;;;;;;;;;25.39;27.04;101972.56;4129603;28;19980;-67
2023/05/19 01:55:27;;;;;;;;;;;;;;;25.39;27.00;101981.47;4131970;28;19929;-70
2023/05/19 01:57:49;;;;;;;;;;;;;;;25.39;27.18;101984.16;4122247;28;19921;-70
2023/05/19 01:59:58;;;;;;;;;;;;;;;25.38;27.16;101979.75;4133077;28;19921;-67
2023/05/19 02:02:04;;;;;;;;;;;;;;;25.38;26.98;101979.75;4120530;28;19951;-66
2023/05/19 02:04:30;;;;;;;;;;;;;;;25.40;27.33;101985.03;4131981;28;20384;-68
2023/05/19 02:06:31;;;;;;;;;;;;;;;25.40;26.93;101982.34;4126268;28;19953;-67
2023/05/19 02:08:40;;;;;;;;;;;;;;;25.40;27.35;101982.34;4127244;28;20391;-68
2023/05/19 02:10:44;;;;;;;;;;;;;;;25.40;27.04;101988.56;4131316;28;19922;-68
2023/05/19 02:12:49;;;;;;;;;;;;;;;25.40;27.34;101982.34;4121263;28;20012;-67
2023/05/19 02:15:10;;;;;;;;;;;;;;;25.40;27.13;101985.03;4131831;28;20292;-68
2023/05/19 02:17:13;;;;;;;;;;;;;;;25.39;27.04;101989.56;4123792;28;19922;-68
2023/05/19 02:19:22;;;;;;;;;;;;;;;25.39;27.37;101981.47;4129877;28;19981;-69
2023/05/19 02:21:24;;;;;;;;;;;;;;;25.39;27.23;101977.94;4131114;28;20237;-68
2023/05/19 02:23:26;;;;;;;;;;;;;;;25.38;27.12;101979.75;4110117;28;20024;-68
2023/05/19 02:25:27;;;;;;;;;;;;;;;25.38;27.41;101979.75;4132705;28;19996;-68
2023/05/19 02:27:29;;;;;;;;;;;;;;;25.38;27.14;101976.22;4128241;28;19932;-68
2023/05/19 02:29:31;;;;;;;;;;;;;;;25.38;27.22;101982.44;4120143;28;20495;-68
2023/05/19 02:31:32;;;;;;;;;;;;;;;25.40;27.16;101982.34;4117937;28;19929;-68
2023/05/19 02:33:35;;;;;;;;;;;;;;;25.39;27.19;101978.78;4126203;28;19980;-67
2023/05/19 02:35:36;;;;;;;;;;;;;;;25.39;27.37;101980.63;4116145;28;19929;-67
2023/05/19 02:37:38;;;;;;;;;;;;;;;25.40;27.42;101983.19;4123062;28;20395;-67
2023/05/19 02:39:40;;;;;;;;;;;;;;;25.40;27.27;101975.09;4122513;28;20024;-68
2023/05/19 02:41:42;;;;;;;;;;;;;;;25.40;27.29;101974.28;4130852;28;19922;-67
2023/05/19 02:43:43;;;;;;;;;;;;;;;25.40;27.34;101979.66;4120342;28;19965;-68
2023/05/19 02:45:45;;;;;;;;;;;;;;;25.40;27.29;101977.81;4132507;28;19949;-68
2023/05/19 02:47:47;;;;;;;;;;;;;;;25.41;27.27;101978.66;4126573;28;20005;-68
2023/05/19 02:49:48;;;;;;;;;;;;;;;25.40;27.14;101976.97;4125326;28;19922;-67
2023/05/19 02:51:50;;;;;;;;;;;;;;;25.40;27.29;101976.97;4131908;28;19921;-67
2023/05/19 02:53:51;;;;;;;;;;;;;;;25.40;27.21;101971.56;4119145;28;19964;-67
2023/05/19 02:55:53;;;;;;;;;;;;;;;25.40;27.48;101969.72;4132120;28;20016;-68
2023/05/19 02:57:54;;;;;;;;;;;;;;;25.41;27.10;101968.75;4128198;28;19922;-68
2023/05/19 02:59:56;;;;;;;;;;;;;;;25.42;27.41;101967.78;4123717;28;19922;-68
2023/05/19 03:01:59;;;;;;;;;;;;;;;25.43;27.39;101965.94;4132017;28;20020;-68
2023/05/19 03:04:00;;;;;;;;;;;;;;;25.42;27.23;101964.22;4119670;28;19969;-67
2023/05/19 03:06:03;;;;;;;;;;;;;;;25.42;27.30;101966.91;4131182;28;19922;-68
2023/05/19 03:08:05;;;;;;;;;;;;;;;25.41;27.34;101967.88;4129887;28;19922;-68
2023/05/19 03:10:07;;;;;;;;;;;;;;;25.41;27.42;101962.50;4122274;28;19928;-68
2023/05/19 03:12:09;;;;;;;;;;;;;;;25.40;27.37;101964.34;4132205;28;20298;-67
2023/05/19 03:14:13;;;;;;;;;;;;;;;25.40;27.36;101960.81;4121352;28;19946;-67
2023/05/19 03:16:15;;;;;;;;;;;;;;;25.39;27.53;101965.31;4130071;28;19922;-69
2023/05/19 03:18:19;;;;;;;;;;;;;;;25.38;27.24;101963.59;4130293;28;19929;-69
2023/05/19 03:20:21;;;;;;;;;;;;;;;25.39;27.17;101973.41;4110688;28;19921;-68
2023/05/19 03:22:22;;;;;;;;;;;;;;;25.39;27.54;101969.84;4131948;28;20032;-68
2023/05/19 03:24:24;;;;;;;;;;;;;;;25.40;27.42;101974.28;4121799;28;19929;-68
2023/05/19 03:26:28;;;;;;;;;;;;;;;25.40;27.42;101971.56;4128449;28;20022;-68
2023/05/19 03:28:29;;;;;;;;;;;;;;;25.39;27.47;101973.41;4129090;28;19921;-68
2023/05/19 03:30:31;;;;;;;;;;;;;;;25.41;27.08;101974.13;4126814;28;20299;-68
2023/05/19 03:32:36;;;;;;;;;;;;;;;25.40;27.41;101971.56;4115418;28;19922;-68
2023/05/19 03:34:38;;;;;;;;;;;;;;;25.39;27.42;101969.84;4119117;28;19957;-68
2023/05/19 03:36:40;;;;;;;;;;;;;;;25.39;27.22;101970.69;4127160;28;20037;-67
2023/05/19 03:38:41;;;;;;;;;;;;;;;25.38;27.23;101968.13;4124246;28;19937;-67
2023/05/19 03:40:43;;;;;;;;;;;;;;;25.38;27.48;101968.13;4126540;28;19930;-67
2023/05/19 03:42:45;;;;;;;;;;;;;;;25.38;27.52;101960.91;4115300;28;19942;-68
2023/05/19 03:44:47;;;;;;;;;;;;;;;25.38;27.44;101971.66;4115860;28;19981;-68
2023/05/19 03:46:48;;;;;;;;;;;;;;;25.38;27.48;101965.44;4108488;28;19941;-68
2023/05/19 03:48:50;;;;;;;;;;;;;;;25.38;27.28;101968.97;4130265;28;19926;-68
2023/05/19 03:50:53;;;;;;;;;;;;;;;25.39;27.23;101972.56;4120210;28;19926;-68
2023/05/19 03:52:54;;;;;;;;;;;;;;;25.29;27.40;101956.22;4130842;28;19922;-67
2023/05/19 03:54:56;;;;;;;;;;;;;;;25.39;27.04;101977.94;4126117;28;19922;-68
2023/05/19 03:56:58;;;;;;;;;;;;;;;25.39;27.55;101975.25;4123766;28;20403;-68
2023/05/19 03:58:59;;;;;;;;;;;;;;;25.38;27.42;101970.81;4130957;28;20378;-68
2023/05/19 04:01:01;;;;;;;;;;;;;;;25.38;27.16;101971.66;4119132;28;19922;-67
2023/05/19 04:03:02;;;;;;;;;;;;;;;25.38;27.67;101970.81;4129801;28;19925;-67
2023/05/19 04:05:04;;;;;;;;;;;;;;;25.36;27.42;101977.16;4127934;28;19921;-67
2023/05/19 04:07:06;;;;;;;;;;;;;;;25.37;27.50;101969.91;4121797;28;19925;-68
2023/05/19 04:09:11;;;;;;;;;;;;;;;25.35;27.11;101972.75;4131406;28;19973;-68
2023/05/19 04:11:13;;;;;;;;;;;;;;;25.37;27.33;101980.69;4120073;28;19922;-68
2023/05/19 04:13:15;;;;;;;;;;;;;;;25.36;27.47;101976.31;4128875;28;19921;-69
2023/05/19 04:15:16;;;;;;;;;;;;;;;25.35;27.50;101978.13;4128945;28;19921;-68
2023/05/19 04:17:18;;;;;;;;;;;;;;;25.36;27.68;101976.31;4103312;28;19961;-69
2023/05/19 04:19:19;;;;;;;;;;;;;;;25.37;27.54;101975.31;4131307;28;19964;-68
2023/05/19 04:21:21;;;;;;;;;;;;;;;25.38;27.48;101981.59;4121999;28;19921;-68
2023/05/19 04:23:22;;;;;;;;;;;;;;;25.38;27.49;101984.28;4127081;28;19929;-68
2023/05/19 04:25:24;;;;;;;;;;;;;;;25.36;27.47;101979.84;4129294;28;19928;-68
2023/05/19 04:27:27;;;;;;;;;;;;;;;25.36;27.26;101979.84;4126816;28;19922;-69
2023/05/19 04:29:29;;;;;;;;;;;;;;;25.36;27.52;101976.31;4115167;28;19956;-68
2023/05/19 04:31:33;;;;;;;;;;;;;;;25.35;27.49;101982.66;4122037;28;20354;-69
2023/05/19 04:33:34;;;;;;;;;;;;;;;25.34;27.60;101976.41;4117929;28;19941;-68
2023/05/19 04:35:37;;;;;;;;;;;;;;;25.35;27.20;101980.81;4116036;28;19922;-68
2023/05/19 04:37:39;;;;;;;;;;;;;;;25.36;27.39;101979.00;4125695;28;19929;-68
2023/05/19 04:39:44;;;;;;;;;;;;;;;25.36;27.18;101979.84;4098902;29;19970;-67
2023/05/19 04:41:45;;;;;;;;;;;;;;;25.37;27.23;101980.69;4116430;28;20369;-68
2023/05/19 04:43:48;;;;;;;;;;;;;;;25.36;27.50;101977.16;4118919;28;20426;-69
2023/05/19 04:45:50;;;;;;;;;;;;;;;25.37;27.79;101978.00;4115520;28;19922;-68
2023/05/19 04:47:56;;;;;;;;;;;;;;;25.36;27.49;101977.16;4125625;28;19929;-68
2023/05/19 04:49:59;;;;;;;;;;;;;;;25.36;27.52;101985.22;4114904;28;20033;-68
2023/05/19 04:52:01;;;;;;;;;;;;;;;25.36;27.43;101982.53;4120646;28;19925;-68
2023/05/19 04:54:02;;;;;;;;;;;;;;;25.36;27.48;101987.09;4119467;28;20017;-68
2023/05/19 04:56:04;;;;;;;;;;;;;;;25.36;27.24;101995.16;4115131;28;20419;-68
2023/05/19 04:58:06;;;;;;;;;;;;;;;25.35;27.24;101994.28;4125532;28;19921;-68
2023/05/19 05:00:11;;;;;;;;;;;;;;;25.34;27.55;101992.56;4114401;28;19929;-68
2023/05/19 05:02:13;;;;;;;;;;;;;;;25.35;27.27;101996.13;4119249;28;20435;-68
2023/05/19 05:04:14;;;;;;;;;;;;;;;25.35;27.55;101996.97;4120509;28;20000;-67
2023/05/19 05:06:16;;;;;;;;;;;;;;;25.35;27.33;101996.13;4114540;28;19969;-67
2023/05/19 05:08:23;;;;;;;;;;;;;;;25.36;27.25;101997.84;4126386;28;19928;-68
2023/05/19 05:10:25;;;;;;;;;;;;;;;25.36;27.53;102001.41;4116213;28;20359;-67
2023/05/19 05:12:26;;;;;;;;;;;;;;;25.37;27.18;101996.84;4121389;28;19984;-68
2023/05/19 05:14:28;;;;;;;;;;;;;;;25.37;27.47;102004.94;4124302;28;19957;-68
2023/05/19 05:16:30;;;;;;;;;;;;;;;25.36;27.26;102004.09;4117413;28;19933;-68
2023/05/19 05:18:33;;;;;;;;;;;;;;;25.35;27.25;102007.75;4128745;28;19926;-67
2023/05/19 05:20:35;;;;;;;;;;;;;;;25.35;27.48;102002.38;4117868;28;19922;-67
2023/05/19 05:22:37;;;;;;;;;;;;;;;25.35;27.47;102005.06;4119865;28;19977;-69
2023/05/19 05:24:39;;;;;;;;;;;;;;;25.34;27.56;102006.03;4125577;28;19929;-68
2023/05/19 05:26:41;;;;;;;;;;;;;;;25.35;27.55;102009.59;4127845;28;19925;-68
2023/05/19 05:28:43;;;;;;;;;;;;;;;25.34;27.37;102010.56;4129251;28;19934;-68
2023/05/19 05:30:45;;;;;;;;;;;;;;;25.35;27.29;102012.28;4119523;28;20331;-70
2023/05/19 05:32:46;;;;;;;;;;;;;;;25.35;27.32;102010.44;4118808;28;20009;-67
2023/05/19 05:34:49;;;;;;;;;;;;;;;25.36;27.35;102008.63;4124511;28;19934;-69
2023/05/19 05:36:51;;;;;;;;;;;;;;;25.36;27.24;102005.94;4133583;28;20325;-69
2023/05/19 05:38:52;;;;;;;;;;;;;;;25.36;27.18;102011.31;4129542;28;19922;-66
2023/05/19 05:40:54;;;;;;;;;;;;;;;25.35;27.32;102015.00;4120886;28;19922;-69
2023/05/19 05:42:55;;;;;;;;;;;;;;;25.34;27.20;102019.50;4118943;28;19928;-70
2023/05/19 05:44:57;;;;;;;;;;;;;;;25.33;27.15;102015.09;4121425;28;19976;-69
2023/05/19 05:46:58;;;;;;;;;;;;;;;25.33;27.07;102020.47;4133143;28;19922;-69
2023/05/19 05:49:00;;;;;;;;;;;;;;;25.32;27.53;102024.16;4126314;28;19921;-70
2023/05/19 05:51:02;;;;;;;;;;;;;;;25.31;27.22;102017.06;4128213;28;19956;-69
2023/05/19 05:53:06;;;;;;;;;;;;;;;25.32;27.57;102026.84;4131719;28;19930;-69
2023/05/19 05:55:08;;;;;;;;;;;;;;;25.33;27.14;102022.31;4121177;28;19922;-68
2023/05/19 05:57:09;;;;;;;;;;;;;;;25.31;27.30;102025.13;4133255;28;19921;-68
2023/05/19 05:59:11;;;;;;;;;;;;;;;25.33;27.17;102019.63;4127247;28;19929;-68
2023/05/19 06:01:15;;;;;;;;;;;;;;;25.33;27.14;102025.00;4126727;28;19969;-67
2023/05/19 06:03:17;;;;;;;;;;;;;;;25.32;27.15;102023.28;4132072;28;19922;-69
2023/05/19 06:05:19;;;;;;;;;;;;;;;25.31;27.48;102026.97;4121249;28;20232;-69
2023/05/19 06:07:20;;;;;;;;;;;;;;;25.30;27.45;102028.81;4131932;28;20060;-69
2023/05/19 06:09:22;;;;;;;;;;;;;;;25.30;27.28;102028.81;4128641;28;19928;-68
2023/05/19 06:11:23;;;;;;;;;;;;;;;25.31;27.20;102029.66;4107807;28;20028;-68
2023/05/19 06:13:25;;;;;;;;;;;;;;;25.11;27.20;101997.06;4131724;28;20291;-69
2023/05/19 06:15:27;;;;;;;;;;;;;;;25.30;27.19;102030.63;4121007;28;20388;-69
2023/05/19 06:17:28;;;;;;;;;;;;;;;25.29;27.34;102037.00;4131221;28;19928;-69
2023/05/19 06:19:30;;;;;;;;;;;;;;;25.30;27.40;102033.31;4131305;28;20016;-69
2023/05/19 06:21:32;;;;;;;;;;;;;;;25.29;27.33;102037.84;4105458;28;20466;-68
2023/05/19 06:23:33;;;;;;;;;;;;;;;25.29;27.27;102035.16;4131889;28;19926;-68
2023/05/19 06:25:35;;;;;;;;;;;;;;;25.31;27.26;102035.03;4123940;28;20008;-69
2023/05/19 06:27:37;;;;;;;;;;;;;;;25.31;27.13;102043.13;4132645;28;20018;-68
2023/05/19 06:29:38;;;;;;;;;;;;;;;25.30;27.40;102036.00;4130924;28;20000;-68
2023/05/19 06:31:40;;;;;;;;;;;;;;;25.29;27.35;102035.16;4121817;28;20363;-68
2023/05/19 06:33:41;;;;;;;;;;;;;;;25.29;27.22;102040.56;4131715;28;19922;-68
2023/05/19 06:35:43;;;;;;;;;;;;;;;25.29;27.29;102034.31;4128302;28;19928;-69
2023/05/19 06:37:44;;;;;;;;;;;;;;;25.29;27.10;102026.25;4121011;28;20362;-69
2023/05/19 06:39:46;;;;;;;;;;;;;;;25.29;27.27;102031.63;4130840;28;19927;-68
2023/05/19 06:41:47;;;;;;;;;;;;;;;25.17;27.07;102012.72;4121133;28;19921;-68
2023/05/19 06:43:49;;;;;;;;;;;;;;;25.28;27.15;102030.75;4131616;28;20467;-68
2023/05/19 06:45:51;;;;;;;;;;;;;;;25.28;26.98;102024.53;4125600;28;19922;-68
2023/05/19 06:47:53;;;;;;;;;;;;;;;25.30;27.45;102033.31;4126900;28;19945;-68
2023/05/19 06:49:55;;;;;;;;;;;;;;;25.29;27.04;102029.78;4130811;28;19921;-68
2023/05/19 06:51:57;;;;;;;;;;;;;;;25.30;27.26;102026.13;4126975;28;20387;-68
2023/05/19 06:53:59;;;;;;;;;;;;;;;25.31;27.42;102024.25;4115428;28;19925;-70
2023/05/19 06:56:00;;;;;;;;;;;;;;;25.30;27.39;102014.47;4120358;28;19961;-67
2023/05/19 06:58:02;;;;;;;;;;;;;;;25.29;27.34;102019.00;4123277;28;19922;-66
2023/05/19 07:00:04;;;;;;;;;;;;;;;25.29;27.21;102013.63;4116021;28;19926;-67
2023/05/19 07:02:06;;;;;;;;;;;;;;;25.31;27.07;102017.06;4127578;28;19929;-68
2023/05/19 07:04:08;;;;;;;;;;;;;;;25.30;27.10;102022.53;4115185;28;19922;-67
2023/05/19 07:06:09;;;;;;;;;;;;;;;25.30;27.27;102015.34;4119002;28;19930;-68
2023/05/19 07:08:11;;;;;;;;;;;;;;;25.30;27.25;102009.94;4124430;28;19949;-68
2023/05/19 07:10:12;;;;;;;;;;;;;;;25.31;27.40;102006.28;4115630;28;19922;-68
2023/05/19 07:12:14;;;;;;;;;;;;;;;25.33;27.45;102020.47;4126290;28;19922;-69
2023/05/19 07:14:16;;;;;;;;;;;;;;;25.33;27.26;102017.78;4116153;28;19936;-68
2023/05/19 07:16:17;;;;;;;;;;;;;;;25.34;27.32;102019.50;4117310;28;20272;-68
2023/05/19 07:18:19;;;;;;;;;;;;;;;25.36;27.44;102008.63;4125996;28;19922;-68
2023/05/19 07:20:21;;;;;;;;;;;;;;;25.36;27.48;102014.00;4115604;28;19937;-68
2023/05/19 07:22:22;;;;;;;;;;;;;;;25.37;27.29;102013.00;4124652;28;19922;-68
2023/05/19 07:24:26;;;;;;;;;;;;;;;25.38;27.25;102011.22;4117182;28;20025;-68
2023/05/19 07:26:28;;;;;;;;;;;;;;;25.39;27.20;102010.25;4121036;28;19929;-68
2023/05/19 07:28:29;;;;;;;;;;;;;;;25.39;27.37;102011.09;4126247;28;19922;-68
2023/05/19 07:30:31;;;;;;;;;;;;;;;25.41;27.40;102010.97;4115506;28;19977;-69
2023/05/19 07:32:33;;;;;;;;;;;;;;;25.41;27.51;102005.59;4122835;28;19928;-69
2023/05/19 07:34:34;;;;;;;;;;;;;;;25.41;27.15;102006.47;4118308;28;20435;-69
2023/05/19 07:36:36;;;;;;;;;;;;;;;25.43;27.11;101998.25;4116775;28;20719;-68
2023/05/19 07:38:37;;;;;;;;;;;;;;;25.44;27.44;102003.50;4123757;28;19940;-68
2023/05/19 07:40:39;;;;;;;;;;;;;;;25.46;27.35;102003.41;4131305;28;19922;-68
2023/05/19 07:42:41;;;;;;;;;;;;;;;25.48;27.09;102005.00;4125438;28;20323;-69
2023/05/19 07:44:42;;;;;;;;;;;;;;;25.49;27.39;102006.72;4124354;28;19921;-68
2023/05/19 07:46:44;;;;;;;;;;;;;;;25.50;27.39;102003.00;4130858;28;19973;-69
2023/05/19 07:48:45;;;;;;;;;;;;;;;25.50;27.37;102003.00;4120025;28;19932;-69
2023/05/19 07:50:51;;;;;;;;;;;;;;;25.52;27.02;102005.63;4131338;28;19955;-68
2023/05/19 07:52:52;;;;;;;;;;;;;;;25.52;27.54;102003.75;4126593;28;20399;-68
2023/05/19 07:54:54;;;;;;;;;;;;;;;25.52;27.32;101997.53;4122673;28;19922;-70
2023/05/19 07:56:56;;;;;;;;;;;;;;;25.54;27.21;101997.41;4131491;28;20314;-68
2023/05/19 07:58:57;;;;;;;;;;;;;;;25.54;27.45;101997.41;4117671;28;19976;-67
2023/05/19 08:00:59;;;;;;;;;;;;;;;25.55;27.42;101989.19;4099184;29;19926;-70
2023/05/19 08:03:01;;;;;;;;;;;;;;;25.57;27.46;101997.19;4107853;28;19961;-67
2023/05/19 08:05:03;;;;;;;;;;;;;;;25.57;27.35;101995.31;4123002;28;19922;-69
2023/05/19 08:07:05;;;;;;;;;;;;;;;25.57;27.32;101987.25;4115117;28;20454;-68
2023/05/19 08:09:06;;;;;;;;;;;;;;;25.58;27.54;101990.78;4125266;28;19926;-69
2023/05/19 08:11:08;;;;;;;;;;;;;;;25.59;27.10;101995.19;4115501;28;19953;-67
2023/05/19 08:13:10;;;;;;;;;;;;;;;25.59;27.10;101984.41;4116256;28;19969;-67
2023/05/19 08:15:11;;;;;;;;;;;;;;;25.59;27.19;101988.00;4124589;28;19961;-67
2023/05/19 08:17:13;;;;;;;;;;;;;;;25.61;27.12;101987.84;4114909;28;19922;-67
2023/05/19 08:19:14;;;;;;;;;;;;;;;25.63;27.42;101988.59;4123795;28;19929;-67
2023/05/19 08:21:16;;;;;;;;;;;;;;;25.62;27.24;101984.19;4118062;28;19929;-67
2023/05/19 08:23:17;;;;;;;;;;;;;;;25.62;27.64;101984.19;4115740;28;19921;-67
2023/05/19 08:25:19;;;;;;;;;;;;;;;25.63;27.24;101986.75;4124590;28;19922;-67
2023/05/19 08:27:20;;;;;;;;;;;;;;;25.63;27.12;101991.28;4129179;28;19929;-68
2023/05/19 08:29:22;;;;;;;;;;;;;;;25.63;27.41;101984.06;4109515;28;19929;-68
2023/05/19 08:31:24;;;;;;;;;;;;;;;25.65;27.32;101989.31;4102567;28;19957;-67
2023/05/19 08:33:25;;;;;;;;;;;;;;;25.66;27.53;101986.53;4116463;28;20079;-67
2023/05/19 08:35:27;;;;;;;;;;;;;;;25.67;27.15;101984.66;4118619;28;19945;-67
2023/05/19 08:37:29;;;;;;;;;;;;;;;25.67;27.22;101987.38;4130455;28;19922;-67
2023/05/19 08:39:34;;;;;;;;;;;;;;;25.67;27.53;101977.44;4121145;28;19996;-67
2023/05/19 08:41:36;;;;;;;;;;;;;;;25.68;27.17;101981.84;4120913;28;19922;-67
2023/05/19 08:43:38;;;;;;;;;;;;;;;25.68;27.35;101973.75;4115209;28;19921;-68
2023/05/19 08:45:46;;;;;;;;;;;;;;;25.67;27.55;101966.66;4126996;28;19925;-68
2023/05/19 08:47:49;;;;;;;;;;;;;;;25.69;27.54;101966.56;4118295;28;19946;-67
2023/05/19 08:49:52;;;;;;;;;;;;;;;25.70;27.54;101960.19;4123148;28;20371;-68
2023/05/19 08:51:59;;;;;;;;;;;;;;;25.72;27.50;101960.91;4124484;28;19962;-68
2023/05/19 08:54:07;;;;;;;;;;;;;;;25.72;27.19;101954.66;4117997;28;20021;-68
2023/05/19 08:56:12;;;;;;;;;;;;;;;25.72;27.37;101960.91;4128411;28;20470;-68
2023/05/19 08:58:15;;;;;;;;;;;;;;;25.53;27.57;101921.13;4117957;28;20275;-68
2023/05/19 09:00:17;;;;;;;;;;;;;;;25.74;27.54;101950.03;4123915;28;20000;-68
2023/05/19 09:02:20;;;;;;;;;;;;;;;25.74;27.54;101947.31;4123750;28;19922;-69
2023/05/19 09:04:23;;;;;;;;;;;;;;;25.75;27.33;101949.88;4117949;28;19926;-68
2023/05/19 09:06:27;;;;;;;;;;;;;;;25.77;27.47;101956.00;4122492;28;19922;-68
2023/05/19 09:08:28;;;;;;;;;;;;;;;25.78;27.08;101948.78;4133768;28;19933;-68
2023/05/19 09:10:30;;;;;;;;;;;;;;;25.78;27.24;101948.78;4128463;28;20016;-68
2023/05/19 09:12:32;;;;;;;;;;;;;;;25.77;27.23;101947.06;4126944;28;19922;-68
2023/05/19 09:14:33;;;;;;;;;;;;;;;25.78;27.18;101938.00;4132635;28;19921;-68
2023/05/19 09:16:35;;;;;;;;;;;;;;;25.78;27.31;101933.44;4121468;28;19930;-69
2023/05/19 09:18:38;;;;;;;;;;;;;;;25.80;27.36;101930.66;4133954;28;19921;-68
2023/05/19 09:20:41;;;;;;;;;;;;;;;25.80;27.58;101931.50;4129418;28;19921;-67
2023/05/19 09:22:46;;;;;;;;;;;;;;;25.80;27.45;101928.81;4125231;28;19922;-67
2023/05/19 09:24:48;;;;;;;;;;;;;;;25.81;27.42;101932.38;4132261;28;19925;-68
2023/05/19 09:26:49;;;;;;;;;;;;;;;25.82;27.54;101931.38;4131992;28;19929;-68
2023/05/19 09:28:51;;;;;;;;;;;;;;;25.82;27.45;101926.84;4117933;28;19933;-68
2023/05/19 09:31:05;;;;;;;;;;;;;;;25.82;27.38;101917.88;4118579;28;19945;-68
2023/05/19 09:33:08;;;;;;;;;;;;;;;25.81;27.51;101917.03;4125092;28;20336;-68
2023/05/19 09:35:11;;;;;;;;;;;;;;;25.82;27.62;101915.19;4116013;28;20285;-68
2023/05/19 09:37:13;;;;;;;;;;;;;;;25.81;27.43;101917.03;4129212;28;19922;-68
2023/05/19 09:39:15;;;;;;;;;;;;;;;25.82;27.58;101913.38;4129975;28;20056;-69
2023/05/19 09:41:17;;;;;;;;;;;;;;;25.82;27.39;101915.19;4130125;28;19921;-69
2023/05/19 09:43:20;;;;;;;;;;;;;;;25.84;27.60;101915.94;4124165;28;19953;-68
2023/05/19 09:45:21;;;;;;;;;;;;;;;25.84;27.36;101913.25;4132269;28;19921;-69
2023/05/19 09:47:23;;;;;;;;;;;;;;;25.84;27.77;101910.53;4131724;28;19925;-68
2023/05/19 09:49:28;;;;;;;;;;;;;;;25.84;27.75;101918.63;4131448;28;19933;-68
2023/05/19 09:51:30;;;;;;;;;;;;;;;25.85;27.46;101906.88;4130915;28;19933;-68
2023/05/19 09:53:32;;;;;;;;;;;;;;;25.86;27.68;101913.97;4123485;28;19922;-68
2023/05/19 09:55:34;;;;;;;;;;;;;;;25.86;27.41;101900.50;4132005;28;20004;-68
2023/05/19 09:57:37;;;;;;;;;;;;;;;25.86;27.68;101902.31;4122259;28;19936;-68
2023/05/19 09:59:38;;;;;;;;;;;;;;;25.86;27.47;101903.19;4130607;28;19921;-67
2023/05/19 10:01:42;;;;;;;;;;;;;;;25.86;27.67;101911.28;4131732;28;20299;-68
2023/05/19 10:03:44;;;;;;;;;;;;;;;25.85;27.40;101912.25;4121924;28;19983;-69
2023/05/19 10:05:46;;;;;;;;;;;;;;;25.85;27.63;101909.56;4131741;28;20008;-68
2023/05/19 10:07:50;;;;;;;;;;;;;;;25.86;27.18;101911.28;4124633;28;19933;-69
2023/05/19 10:09:53;;;;;;;;;;;;;;;25.86;27.30;101910.41;4129700;28;19921;-69
2023/05/19 10:11:57;;;;;;;;;;;;;;;25.86;27.59;101907.72;4131430;28;20322;-68
2023/05/19 10:13:58;;;;;;;;;;;;;;;25.86;27.37;101905.91;4122065;28;20442;-67
2023/05/19 10:16:00;;;;;;;;;;;;;;;25.88;27.66;101900.38;4131959;28;19921;-68
2023/05/19 10:18:02;;;;;;;;;;;;;;;25.88;27.57;101903.91;4125465;28;19922;-68
2023/05/19 10:20:06;;;;;;;;;;;;;;;25.88;27.62;101903.06;4128017;28;19929;-68
2023/05/19 10:22:07;;;;;;;;;;;;;;;25.89;27.67;101902.09;4131478;28;19929;-68
2023/05/19 10:24:09;;;;;;;;;;;;;;;25.89;27.54;101899.38;4121394;28;20402;-69
2023/05/19 10:26:13;;;;;;;;;;;;;;;25.90;27.61;101906.50;4132024;28;19922;-69
2023/05/19 10:28:16;;;;;;;;;;;;;;;25.89;27.55;101899.38;4128610;28;20020;-69
2023/05/19 10:30:20;;;;;;;;;;;;;;;25.88;27.26;101894.97;4122172;28;19921;-69